KREO/REO METAR and TAF weather

Enter ICAO airport designator
Station Type Date Time Source
KREO METAR 2021/08/04 16:52 UTC NOAA

KREO 041652Z AUTO 34004KT 28/06 A3010 RMK AO1 SLP145 T02830061


Station Type Date Time Source
KREO Decoded METAR 2021/08/04 16:52 UTC NOAA

ROME, OR, United States (KREO) 42-35N 117-52W 1235M
Aug 04, 2021 - 12:52 PM EDT / 2021.08.04 1652 UTC
Wind: from the NNW (340 degrees) at 5 MPH (4 KT):0
Temperature: 82.9 F (28.3 C)
Dew Point: 43.0 F (6.1 C)
Relative Humidity: 24%
Pressure (altimeter): 30.1 in. Hg (1019 hPa)
ob: KREO 041652Z AUTO 34004KT 28/06 A3010 RMK AO1 SLP145 T02830061
cycle: 17

Station Type Date Time Source
KREO TAF UTC NOAA

Error!

Example: see airport list